Time;durP1;ratioP1;P1;durP2;ratioP2;P2;SDS_P1;SDS_P2;PMS_P1;PMS_P2;Temp;Humidity;BMP_temperature;BMP_pressure;BME280_temperature;BME280_humidity;BME280_pressure;Samples;Min_cycle;Max_cycle;Signal;HPM_P1;HPM_P2
2022/11/16 00:01:44;;;;;;;7.55;5.25;;;10.60;99.90;;;;;;5110618;27;20504;-66
2022/11/16 00:04:10;;;;;;;6.93;5.28;;;10.60;99.90;;;;;;5112201;27;20047;-66
2022/11/16 00:06:36;;;;;;;8.15;5.28;;;10.60;99.90;;;;;;5110352;27;20043;-66
2022/11/16 00:09:21;;;;;;;6.00;5.05;;;10.60;99.90;;;;;;5110475;27;20041;-67
2022/11/16 00:11:58;;;;;;;7.82;5.82;;;10.60;99.90;;;;;;5111901;27;20043;-66
2022/11/16 00:14:26;;;;;;;7.05;5.13;;;10.60;99.90;;;;;;5106227;27;20410;-67
2022/11/16 00:16:52;;;;;;;7.00;5.03;;;10.60;99.90;;;;;;5110139;27;20439;-66
2022/11/16 00:19:18;;;;;;;6.13;5.40;;;10.60;99.90;;;;;;5111202;27;20051;-67
2022/11/16 00:21:43;;;;;;;6.68;5.93;;;10.60;99.90;;;;;;5108561;27;20039;-67
2022/11/16 00:24:14;;;;;;;7.28;5.65;;;10.60;99.90;;;;;;5095139;27;20058;-67
2022/11/16 00:26:40;;;;;;;7.22;5.45;;;10.70;99.90;;;;;;5094289;27;20047;-67
2022/11/16 00:29:06;;;;;;;6.60;5.78;;;10.70;99.90;;;;;;5126571;27;20076;-67
2022/11/16 00:31:31;;;;;;;7.60;5.93;;;10.70;99.90;;;;;;5112553;27;20039;-67
2022/11/16 00:33:57;;;;;;;7.55;5.93;;;10.70;99.90;;;;;;5110465;27;20067;-67
2022/11/16 00:36:23;;;;;;;6.53;5.57;;;10.70;99.90;;;;;;5112526;27;20114;-66
2022/11/16 00:38:52;;;;;;;7.60;6.28;;;10.70;99.90;;;;;;5110877;27;20080;-67
2022/11/16 00:41:18;;;;;;;7.60;5.95;;;10.70;99.90;;;;;;5128421;27;20043;-67
2022/11/16 00:43:43;;;;;;;7.90;6.32;;;10.70;99.90;;;;;;5105214;27;20042;-66
2022/11/16 00:46:09;;;;;;;9.25;6.82;;;10.70;99.90;;;;;;5104688;27;20055;-66
2022/11/16 00:48:35;;;;;;;7.55;6.25;;;10.70;99.90;;;;;;5092552;27;20042;-67
2022/11/16 00:51:00;;;;;;;9.70;6.68;;;10.70;99.90;;;;;;5112452;27;20076;-67
2022/11/16 00:53:26;;;;;;;8.55;6.25;;;10.70;99.90;;;;;;5090475;27;20562;-67
2022/11/16 00:55:52;;;;;;;9.18;6.90;;;10.70;99.90;;;;;;5110611;27;20451;-67
2022/11/16 00:58:17;;;;;;;7.97;6.32;;;10.70;99.90;;;;;;5092628;27;20090;-67
2022/11/16 01:00:43;;;;;;;8.88;6.90;;;10.70;99.90;;;;;;5108331;27;20047;-67
2022/11/16 01:03:09;;;;;;;8.70;6.90;;;10.70;99.90;;;;;;5088231;27;20088;-67
2022/11/16 01:05:35;;;;;;;8.50;6.65;;;10.70;99.90;;;;;;5101835;27;20039;-67
2022/11/16 01:08:00;;;;;;;9.13;7.00;;;10.70;99.90;;;;;;5105907;27;20401;-67
2022/11/16 01:10:27;;;;;;;7.82;6.70;;;10.70;99.90;;;;;;5108759;27;20050;-67
2022/11/16 01:12:53;;;;;;;10.30;7.57;;;10.70;99.90;;;;;;5108348;27;20035;-67
2022/11/16 01:15:22;;;;;;;8.02;7.22;;;10.70;99.90;;;;;;5106987;28;20071;-67
2022/11/16 01:17:48;;;;;;;8.85;7.30;;;10.70;99.90;;;;;;5090979;27;20046;-66
2022/11/16 01:20:18;;;;;;;8.90;7.70;;;10.70;99.90;;;;;;5110225;27;20478;-67
2022/11/16 01:22:44;;;;;;;8.68;7.78;;;10.70;99.90;;;;;;5111599;27;20039;-66
2022/11/16 01:25:11;;;;;;;9.30;7.97;;;10.70;99.90;;;;;;5111129;28;20095;-67
2022/11/16 01:27:38;;;;;;;10.60;7.75;;;10.70;99.90;;;;;;5108235;28;20031;-67
2022/11/16 01:30:06;;;;;;;9.60;8.02;;;10.70;99.90;;;;;;5109958;28;20047;-67
2022/11/16 01:32:32;;;;;;;10.52;8.60;;;10.70;99.90;;;;;;5107807;28;20044;-67
2022/11/16 01:34:57;;;;;;;9.15;8.23;;;10.70;99.90;;;;;;5108754;28;20382;-67
2022/11/16 01:37:23;;;;;;;9.45;8.55;;;10.70;99.90;;;;;;5110403;28;20039;-67
2022/11/16 01:39:49;;;;;;;9.38;8.43;;;10.70;99.90;;;;;;5088596;28;20073;-67
2022/11/16 01:42:24;;;;;;;10.23;8.80;;;10.70;99.90;;;;;;5104806;28;20050;-67
2022/11/16 01:45:06;;;;;;;10.25;8.73;;;10.70;99.90;;;;;;5107577;28;20032;-67
2022/11/16 01:47:33;;;;;;;10.35;9.10;;;10.70;99.90;;;;;;5109016;28;20525;-67
2022/11/16 01:50:14;;;;;;;11.25;8.88;;;10.70;99.90;;;;;;5112212;28;20386;-67
2022/11/16 01:52:54;;;;;;;12.70;9.68;;;10.70;99.90;;;;;;5108012;28;20040;-67
2022/11/16 01:55:21;;;;;;;9.35;8.35;;;10.70;99.90;;;;;;5109120;28;20044;-67
2022/11/16 01:57:48;;;;;;;13.27;9.73;;;10.70;99.90;;;;;;5112271;28;20039;-66
2022/11/16 02:00:15;;;;;;;11.80;9.75;;;10.70;99.90;;;;;;5091679;28;20054;-66
2022/11/16 02:02:40;;;;;;;11.43;9.43;;;10.70;99.90;;;;;;5108688;28;20036;-67
2022/11/16 02:05:08;;;;;;;11.10;10.00;;;10.70;99.90;;;;;;5109634;28;20050;-67
2022/11/16 02:10:43;;;;;;;11.55;9.63;;;10.80;99.90;;;;;;5111999;28;20069;-67
2022/11/16 02:13:36;;;;;;;11.88;9.40;;;10.70;99.90;;;;;;5106063;28;20062;-66
2022/11/16 02:16:32;;;;;;;10.75;9.50;;;10.80;99.90;;;;;;5102483;28;20529;-66
2022/11/16 02:19:28;;;;;;;12.05;10.13;;;10.70;99.90;;;;;;5108509;28;20398;-67
2022/11/16 02:22:31;;;;;;;10.57;9.32;;;10.70;99.90;;;;;;5109094;28;20039;-67
2022/11/16 02:25:14;;;;;;;11.77;8.95;;;10.70;99.90;;;;;;5110428;28;20497;-67
2022/11/16 02:27:52;;;;;;;11.77;9.25;;;10.80;99.90;;;;;;5110971;28;20474;-67
2022/11/16 02:30:19;;;;;;;12.50;9.30;;;10.70;99.90;;;;;;5108870;28;20039;-66
2022/11/16 02:32:51;;;;;;;12.25;9.57;;;10.70;99.90;;;;;;5111100;28;20046;-66
2022/11/16 02:35:51;;;;;;;11.60;9.32;;;10.70;99.90;;;;;;5107566;28;20043;-67
2022/11/16 02:38:24;;;;;;;14.48;9.88;;;10.70;99.90;;;;;;5006654;28;20543;-66
2022/11/16 02:40:54;;;;;;;11.95;9.82;;;10.70;99.90;;;;;;5010279;28;20558;-66
2022/11/16 02:43:34;;;;;;;13.05;9.93;;;10.70;99.90;;;;;;5008165;28;20073;-66
2022/11/16 02:46:07;;;;;;;9.13;8.23;;;10.70;99.90;;;;;;5008924;28;20066;-67
2022/11/16 02:48:37;;;;;;;;;;;10.70;99.90;;;;;;5013064;28;20037;-66
2022/11/16 02:51:05;;;;;;;10.13;8.82;;;10.70;99.90;;;;;;5025316;28;19928;-67
2022/11/16 02:53:37;;;;;;;11.18;9.02;;;10.70;99.90;;;;;;5011336;28;20056;-66
2022/11/16 02:56:03;;;;;;;12.18;9.32;;;10.80;99.90;;;;;;5011345;28;20124;-67
2022/11/16 02:58:29;;;;;;;9.90;8.88;;;10.80;99.90;;;;;;4993603;28;20581;-67
2022/11/16 03:01:03;;;;;;;10.35;9.23;;;10.80;99.90;;;;;;4993069;28;20133;-67
2022/11/16 03:03:41;;;;;;;13.20;9.35;;;10.80;99.90;;;;;;5011510;28;20801;-66
2022/11/16 03:06:11;;;;;;;10.82;9.23;;;10.80;99.90;;;;;;5012439;28;20033;-67
2022/11/16 03:08:41;;;;;;;9.95;8.90;;;10.80;99.90;;;;;;5010849;28;20045;-67
2022/11/16 03:14:08;;;;;;;11.98;9.32;;;10.80;99.90;;;;;;5045188;28;20048;-66
2022/11/16 03:16:39;;;;;;;12.63;9.77;;;10.80;99.90;;;;;;5090652;28;20040;-67
2022/11/16 03:19:09;;;;;;;10.02;8.70;;;10.80;99.90;;;;;;5089723;28;20394;-67
2022/11/16 03:21:53;;;;;;;11.23;8.75;;;10.80;99.90;;;;;;5089865;28;20046;-67
2022/11/16 03:24:19;;;;;;;9.65;8.52;;;10.80;99.90;;;;;;5086618;28;20123;-66
2022/11/16 03:27:10;;;;;;;11.30;8.45;;;10.90;99.90;;;;;;5090157;28;20040;-66
2022/11/16 03:30:07;;;;;;;9.25;8.27;;;10.80;99.90;;;;;;5084909;28;20047;-67
2022/11/16 03:32:54;;;;;;;9.85;8.85;;;10.80;99.90;;;;;;5087984;28;20040;-67
2022/11/16 03:35:36;;;;;;;9.27;8.30;;;10.80;99.90;;;;;;5086828;28;20048;-67
2022/11/16 03:38:04;;;;;;;9.23;8.20;;;10.80;99.90;;;;;;5085141;28;20036;-66
2022/11/16 03:40:32;;;;;;;10.85;8.93;;;10.80;99.90;;;;;;5086239;28;20044;-67
2022/11/16 03:43:00;;;;;;;11.18;9.23;;;10.80;99.90;;;;;;5089506;28;20882;-67
2022/11/16 03:45:27;;;;;;;10.23;9.18;;;10.90;99.90;;;;;;5091149;27;20036;-68
2022/11/16 03:47:52;;;;;;;11.60;8.85;;;10.80;99.90;;;;;;5111316;27;20042;-67
2022/11/16 03:50:18;;;;;;;9.88;8.40;;;10.80;99.90;;;;;;5111356;27;20062;-66
2022/11/16 03:52:43;;;;;;;10.93;8.50;;;10.90;99.90;;;;;;5113219;27;20039;-66
2022/11/16 03:55:09;;;;;;;12.07;9.30;;;10.80;99.90;;;;;;5103848;27;20049;-66
2022/11/16 03:57:35;;;;;;;9.52;8.52;;;10.80;99.90;;;;;;5108409;27;20035;-67
2022/11/16 04:00:01;;;;;;;10.15;8.32;;;10.90;99.90;;;;;;5124220;27;20462;-66
2022/11/16 04:02:26;;;;;;;9.88;8.88;;;10.90;99.90;;;;;;5104207;27;20427;-67
2022/11/16 04:24:16;;;;;;;11.52;8.93;;;10.90;99.90;;;;;;5109111;27;20043;-67
2022/11/16 04:29:34;;;;;;;9.43;8.52;;;10.90;99.90;;;;;;5108948;27;20134;-67
2022/11/16 04:40:16;;;;;;;9.75;8.75;;;10.90;99.90;;;;;;5115453;27;20035;-66
2022/11/16 04:42:41;;;;;;;10.07;8.77;;;10.90;99.90;;;;;;5108010;27;20050;-66
2022/11/16 04:47:52;;;;;;;9.85;8.85;;;10.80;99.90;;;;;;5110807;27;20075;-66
2022/11/16 04:50:19;;;;;;;10.25;9.05;;;10.90;99.90;;;;;;5095294;27;20540;-66
2022/11/16 04:52:45;;;;;;;12.10;8.93;;;10.80;99.90;;;;;;5106872;27;20051;-67
2022/11/16 04:55:11;;;;;;;9.70;8.70;;;10.80;99.90;;;;;;5108597;27;20388;-67
2022/11/16 04:57:38;;;;;;;11.02;8.77;;;10.80;99.90;;;;;;5111578;27;20031;-67
2022/11/16 05:00:05;;;;;;;9.43;8.38;;;10.80;99.90;;;;;;5092345;27;20054;-67
2022/11/16 05:02:31;;;;;;;10.05;9.05;;;10.80;99.90;;;;;;5089813;27;20409;-67
2022/11/16 05:04:56;;;;;;;9.40;8.50;;;10.80;99.90;;;;;;5111546;27;20035;-67
2022/11/16 05:07:22;;;;;;;10.48;9.38;;;10.90;99.90;;;;;;5110486;27;20050;-66
2022/11/16 05:09:48;;;;;;;10.73;8.75;;;10.80;99.90;;;;;;5110740;27;20057;-67
2022/11/16 05:12:21;;;;;;;10.95;9.80;;;10.80;99.90;;;;;;5109931;28;20059;-67
2022/11/16 05:14:47;;;;;;;11.20;9.25;;;10.90;99.90;;;;;;5113629;27;20035;-67
2022/11/16 05:17:13;;;;;;;9.70;8.70;;;10.80;99.90;;;;;;5109936;27;20587;-67
2022/11/16 05:22:23;;;;;;;11.32;8.88;;;10.80;99.90;;;;;;5103536;27;20125;-66
2022/11/16 05:24:49;;;;;;;10.75;9.65;;;10.80;99.90;;;;;;5110205;28;20027;-66
2022/11/16 05:27:16;;;;;;;11.77;9.98;;;10.80;99.90;;;;;;5107127;28;20031;-67
2022/11/16 05:29:43;;;;;;;11.35;9.15;;;10.80;99.90;;;;;;5110228;28;20047;-67
2022/11/16 05:32:11;;;;;;;13.40;10.00;;;10.80;99.90;;;;;;5107534;28;20425;-66
2022/11/16 05:34:36;;;;;;;11.27;10.10;;;10.80;99.90;;;;;;5113597;28;20118;-66
2022/11/16 05:37:02;;;;;;;12.20;10.23;;;10.80;99.90;;;;;;5109351;28;20118;-66
2022/11/16 05:39:28;;;;;;;11.77;10.05;;;10.80;99.90;;;;;;5110505;28;20032;-67
2022/11/16 05:41:54;;;;;;;11.73;10.52;;;10.80;99.90;;;;;;5110410;28;20047;-66
2022/11/16 05:44:20;;;;;;;10.82;9.70;;;10.80;99.90;;;;;;5109058;28;20057;-66
2022/11/16 05:46:47;;;;;;;14.20;11.02;;;10.90;99.90;;;;;;5090800;28;20047;-67
2022/11/16 05:49:13;;;;;;;13.35;10.43;;;10.90;99.90;;;;;;5109898;28;20114;-66
2022/11/16 05:51:40;;;;;;;14.70;11.55;;;10.90;99.90;;;;;;5112822;28;20074;-67
2022/11/16 05:54:06;;;;;;;12.30;10.98;;;10.80;99.90;;;;;;5110456;28;20043;-67
2022/11/16 05:56:33;;;;;;;14.38;10.63;;;10.80;99.90;;;;;;5101436;28;20487;-67
2022/11/16 05:58:59;;;;;;;10.27;9.20;;;10.80;99.90;;;;;;5092096;28;20039;-67
2022/11/16 06:01:25;;;;;;;10.23;7.85;;;10.80;99.90;;;;;;5110783;28;20070;-67
2022/11/16 06:03:51;;;;;;;8.18;7.35;;;10.80;99.90;;;;;;5106190;28;20059;-67
2022/11/16 06:06:18;;;;;;;8.95;8.05;;;10.90;99.90;;;;;;5112034;28;20046;-67
2022/11/16 06:08:44;;;;;;;10.18;7.35;;;10.90;99.90;;;;;;5110872;28;20544;-67
2022/11/16 06:11:11;;;;;;;6.85;6.13;;;10.90;99.90;;;;;;5110168;28;20050;-67
2022/11/16 06:13:37;;;;;;;6.45;5.85;;;10.90;99.90;;;;;;5109724;28;20042;-67
2022/11/16 06:16:04;;;;;;;6.10;5.53;;;10.90;99.90;;;;;;5108299;28;20503;-66
2022/11/16 06:18:30;;;;;;;8.27;5.43;;;10.90;99.90;;;;;;5092549;28;20129;-68
2022/11/16 06:20:56;;;;;;;6.07;5.47;;;10.90;99.90;;;;;;5130753;28;20419;-67
2022/11/16 06:23:22;;;;;;;6.72;5.10;;;10.90;99.90;;;;;;5111451;28;20039;-68
2022/11/16 06:25:53;;;;;;;4.97;4.45;;;10.90;99.90;;;;;;5111360;28;20126;-68
2022/11/16 06:28:19;;;;;;;6.82;5.60;;;11.00;99.90;;;;;;5112174;27;20490;-67
2022/11/16 06:30:47;;;;;;;5.50;5.00;;;11.00;99.90;;;;;;5095135;28;20042;-67
2022/11/16 06:33:13;;;;;;;6.22;5.63;;;11.00;99.90;;;;;;5114065;27;20064;-67
2022/11/16 06:35:38;;;;;;;6.55;5.85;;;11.00;99.90;;;;;;5115983;27;20035;-68
2022/11/16 06:38:04;;;;;;;7.50;6.25;;;11.00;99.90;;;;;;5114684;27;20039;-68
2022/11/16 06:40:31;;;;;;;6.18;5.57;;;11.00;99.90;;;;;;5113599;27;20378;-68
2022/11/16 06:42:57;;;;;;;6.70;5.65;;;11.00;99.90;;;;;;5116520;27;20499;-68
2022/11/16 06:45:22;;;;;;;7.22;6.53;;;10.90;99.90;;;;;;5116112;27;20043;-68
2022/11/16 06:47:48;;;;;;;8.45;6.40;;;10.90;99.90;;;;;;5112652;27;20477;-69
2022/11/16 06:50:18;;;;;;;6.82;5.85;;;10.90;99.90;;;;;;5113611;27;20135;-68
2022/11/16 06:52:48;;;;;;;7.20;6.25;;;10.90;99.90;;;;;;5114063;27;20160;-67
2022/11/16 06:55:14;;;;;;;8.00;6.20;;;10.90;99.90;;;;;;5112854;27;20043;-68
2022/11/16 06:57:40;;;;;;;6.80;6.20;;;10.90;99.90;;;;;;5114805;27;20084;-67
2022/11/16 07:00:07;;;;;;;8.75;6.55;;;10.90;99.90;;;;;;5115711;27;20078;-68
2022/11/16 07:02:36;;;;;;;7.07;6.38;;;10.90;99.90;;;;;;5114102;27;20389;-68
2022/11/16 07:05:02;;;;;;;7.22;6.38;;;10.90;99.90;;;;;;5094236;27;20047;-67
2022/11/16 07:07:28;;;;;;;8.73;6.35;;;10.90;99.90;;;;;;5114061;27;20137;-68
2022/11/16 07:09:53;;;;;;;6.65;6.05;;;10.90;99.90;;;;;;5115617;27;20125;-68
2022/11/16 07:12:19;;;;;;;6.38;5.78;;;10.90;99.90;;;;;;5113997;27;20120;-68
2022/11/16 07:14:44;;;;;;;5.88;5.30;;;10.90;99.90;;;;;;5108200;27;20039;-67
2022/11/16 07:17:10;;;;;;;5.93;5.40;;;10.90;99.90;;;;;;5112909;27;20039;-69
2022/11/16 07:19:36;;;;;;;5.50;4.80;;;10.90;99.90;;;;;;5115697;27;20034;-68
2022/11/16 07:22:03;;;;;;;6.72;4.75;;;10.90;99.90;;;;;;5115650;27;20092;-68
2022/11/16 07:24:28;;;;;;;5.75;5.00;;;10.90;99.90;;;;;;5128454;27;20031;-68
2022/11/16 07:26:54;;;;;;;5.40;4.90;;;10.90;99.90;;;;;;5107467;27;20061;-68
2022/11/16 07:29:21;;;;;;;5.03;4.53;;;10.90;99.90;;;;;;5112182;27;20038;-68
2022/11/16 07:31:47;;;;;;;6.43;4.93;;;10.90;99.90;;;;;;5114186;27;20675;-68
2022/11/16 07:34:12;;;;;;;6.05;4.80;;;10.90;99.90;;;;;;5114610;27;20130;-68
2022/11/16 07:36:38;;;;;;;5.18;4.68;;;10.90;99.90;;;;;;5114759;27;20425;-68
2022/11/16 07:39:05;;;;;;;6.82;5.88;;;10.90;99.90;;;;;;5112160;27;20343;-68
2022/11/16 07:41:31;;;;;;;7.57;5.03;;;10.90;99.90;;;;;;5111933;27;20485;-69
2022/11/16 07:43:57;;;;;;;7.03;5.22;;;10.90;99.90;;;;;;5113642;28;20104;-68
2022/11/16 07:46:23;;;;;;;7.07;5.13;;;10.80;99.90;;;;;;5096685;27;20046;-68
2022/11/16 07:48:49;;;;;;;6.30;5.68;;;10.80;99.90;;;;;;5114566;27;20110;-68
2022/11/16 07:51:16;;;;;;;8.60;5.78;;;10.80;99.90;;;;;;5112562;27;20488;-68
2022/11/16 07:53:42;;;;;;;8.85;7.55;;;10.80;99.90;;;;;;5113368;27;20401;-68
2022/11/16 07:56:09;;;;;;;9.13;7.40;;;10.80;99.90;;;;;;5112556;27;20070;-68
2022/11/16 07:58:35;;;;;;;8.45;7.55;;;10.80;99.90;;;;;;5114262;27;20528;-68
2022/11/16 08:01:13;;;;;;;9.50;8.50;;;10.80;99.90;;;;;;5114229;27;20035;-68
2022/11/16 08:03:40;;;;;;;9.02;8.10;;;10.80;99.90;;;;;;5113844;27;20062;-67
2022/11/16 08:06:10;;;;;;;8.57;7.78;;;10.70;99.90;;;;;;5094351;27;20058;-68
2022/11/16 08:08:36;;;;;;;8.68;7.85;;;10.80;99.90;;;;;;5113152;27;20054;-68
2022/11/16 08:11:08;;;;;;;10.45;8.88;;;10.80;99.90;;;;;;5113847;27;20443;-69
2022/11/16 08:13:35;;;;;;;10.05;7.97;;;10.70;99.90;;;;;;5093658;27;20055;-69
2022/11/16 08:16:03;;;;;;;10.10;8.10;;;10.80;99.90;;;;;;5113387;27;20066;-68
2022/11/16 08:18:29;;;;;;;11.55;7.75;;;10.80;99.90;;;;;;5113752;27;20035;-69
2022/11/16 08:20:58;;;;;;;9.30;7.68;;;10.80;99.90;;;;;;5114033;27;20050;-68
2022/11/16 08:23:24;;;;;;;10.18;8.13;;;10.80;99.90;;;;;;5113679;27;20543;-67
2022/11/16 08:25:49;;;;;;;9.02;7.20;;;10.80;99.90;;;;;;5112936;27;20121;-68
2022/11/16 08:28:15;;;;;;;8.50;7.68;;;10.90;99.90;;;;;;5113685;27;20066;-67
2022/11/16 08:30:41;;;;;;;9.77;7.28;;;10.90;99.90;;;;;;5110545;27;20197;-68
2022/11/16 08:33:08;;;;;;;7.47;6.68;;;10.90;99.90;;;;;;5113387;27;20035;-68
2022/11/16 08:35:35;;;;;;;9.60;7.00;;;10.90;99.90;;;;;;5113688;27;20119;-68
2022/11/16 08:38:01;;;;;;;8.30;6.93;;;10.90;99.90;;;;;;5113429;27;20095;-68
2022/11/16 08:40:27;;;;;;;7.15;6.40;;;11.00;99.90;;;;;;5113632;27;20035;-68
2022/11/16 08:42:55;;;;;;;8.60;7.03;;;11.00;99.90;;;;;;5113703;27;20039;-68
2022/11/16 08:45:24;;;;;;;7.90;6.70;;;11.00;99.90;;;;;;5114007;27;20035;-69
2022/11/16 08:47:51;;;;;;;8.18;6.57;;;11.10;99.90;;;;;;5109941;28;20035;-68
2022/11/16 08:50:17;;;;;;;7.20;6.50;;;11.20;99.90;;;;;;5093222;28;20503;-68
2022/11/16 08:52:42;;;;;;;8.50;7.55;;;11.30;99.90;;;;;;5093327;28;20083;-68
2022/11/16 08:55:09;;;;;;;9.07;7.03;;;11.40;99.90;;;;;;5110291;28;20122;-69
2022/11/16 08:57:35;;;;;;;9.60;6.82;;;11.50;99.90;;;;;;5092406;28;20058;-68
2022/11/16 09:00:01;;;;;;;9.23;6.93;;;11.50;99.90;;;;;;5110769;28;20031;-68
2022/11/16 09:02:26;;;;;;;9.55;7.55;;;11.60;99.90;;;;;;5109339;28;20401;-68
2022/11/16 09:04:52;;;;;;;11.82;7.80;;;11.60;99.90;;;;;;5110017;28;20039;-68
2022/11/16 09:07:18;;;;;;;9.80;8.27;;;11.60;99.90;;;;;;5109567;28;20046;-68
2022/11/16 09:09:44;;;;;;;12.05;8.02;;;11.50;99.90;;;;;;5109565;28;20562;-69
2022/11/16 09:12:09;;;;;;;9.68;8.35;;;11.50;99.90;;;;;;5109466;28;20085;-69
2022/11/16 09:14:35;;;;;;;13.88;8.60;;;11.50;99.90;;;;;;5109165;28;20043;-69
2022/11/16 09:17:00;;;;;;;12.48;9.15;;;11.50;99.90;;;;;;5109532;28;20036;-68
2022/11/16 09:19:26;;;;;;;13.68;10.23;;;11.50;99.90;;;;;;5109644;28;20543;-68
2022/11/16 09:21:52;;;;;;;12.27;9.77;;;11.50;99.90;;;;;;5109015;28;20035;-68
2022/11/16 09:24:17;;;;;;;12.27;9.90;;;11.50;99.90;;;;;;5109354;28;20046;-68
2022/11/16 09:26:43;;;;;;;11.80;10.13;;;11.60;99.90;;;;;;5109653;28;20486;-68
2022/11/16 09:29:13;;;;;;;15.55;10.40;;;11.60;99.90;;;;;;5109381;28;20035;-68
2022/11/16 09:31:40;;;;;;;14.95;11.20;;;11.70;99.90;;;;;;5109227;28;20054;-69
2022/11/16 09:34:06;;;;;;;12.98;11.13;;;11.90;99.90;;;;;;5108819;28;20032;-68
2022/11/16 09:36:32;;;;;;;12.73;10.98;;;11.90;99.90;;;;;;5109524;28;20039;-68
2022/11/16 09:38:58;;;;;;;10.88;9.43;;;12.00;99.90;;;;;;5109457;28;20039;-69
2022/11/16 09:41:46;;;;;;;16.05;10.38;;;12.00;99.90;;;;;;5106616;28;20083;-69
2022/11/16 09:44:40;;;;;;;15.02;10.85;;;12.10;99.90;;;;;;5089120;28;20043;-67
2022/11/16 09:47:14;;;;;;;15.60;10.50;;;12.10;99.90;;;;;;5102628;28;20044;-68
2022/11/16 09:49:46;;;;;;;11.10;9.15;;;12.10;99.90;;;;;;5106047;28;20093;-67
2022/11/16 09:52:37;;;;;;;12.87;9.73;;;12.00;99.90;;;;;;5102103;28;20479;-68
2022/11/16 09:55:23;;;;;;;16.10;9.68;;;12.00;99.90;;;;;;5109503;28;20470;-68
2022/11/16 09:57:52;;;;;;;11.15;9.02;;;12.30;99.90;;;;;;5118105;27;20050;-68
2022/11/16 10:00:23;;;;;;;13.60;8.15;;;12.80;99.90;;;;;;5102457;28;20405;-68
2022/11/16 10:03:04;;;;;;;9.25;7.75;;;13.20;99.90;;;;;;5107970;28;20043;-68
2022/11/16 10:06:02;;;;;;;12.98;6.90;;;13.50;99.90;;;;;;5106187;28;20102;-69
2022/11/16 10:08:45;;;;;;;9.15;6.30;;;13.70;99.90;;;;;;5105643;28;20059;-69
2022/11/16 10:11:13;;;;;;;10.20;6.18;;;14.00;99.90;;;;;;5093257;28;20035;-69
2022/11/16 10:13:44;;;;;;;7.43;5.70;;;14.20;99.90;;;;;;5090227;28;20052;-68
2022/11/16 10:16:34;;;;;;;7.80;4.78;;;14.20;99.90;;;;;;5095552;28;20410;-69
2022/11/16 10:19:37;;;;;;;7.68;4.28;;;13.70;99.90;;;;;;5111159;28;20048;-69
2022/11/16 10:22:12;;;;;;;5.20;3.80;;;13.30;99.90;;;;;;5112624;28;20039;-69
2022/11/16 10:24:58;;;;;;;10.30;4.00;;;13.10;99.90;;;;;;5111257;28;20031;-68
2022/11/16 10:28:01;;;;;;;9.32;3.83;;;13.00;99.90;;;;;;5110768;28;20042;-68
2022/11/16 10:30:27;;;;;;;10.02;4.53;;;12.90;99.90;;;;;;5108978;28;20043;-68
2022/11/16 10:32:55;;;;;;;7.57;3.80;;;12.90;99.90;;;;;;5112524;28;20114;-69
2022/11/16 10:35:38;;;;;;;6.63;3.80;;;12.90;99.90;;;;;;5108231;28;20044;-68
2022/11/16 10:38:15;;;;;;;7.32;3.33;;;12.90;99.90;;;;;;5110927;28;20043;-69
2022/11/16 10:40:45;;;;;;;6.32;3.33;;;12.80;99.90;;;;;;5107219;28;20387;-68
2022/11/16 10:43:15;;;;;;;9.23;3.30;;;12.80;99.90;;;;;;5108476;28;20471;-69
2022/11/16 10:46:14;;;;;;;6.45;3.30;;;12.80;99.90;;;;;;5112285;28;20039;-68
2022/11/16 10:49:14;;;;;;;5.05;2.67;;;13.20;99.90;;;;;;5107663;28;20104;-69
2022/11/16 10:51:39;;;;;;;5.78;2.35;;;13.40;99.90;;;;;;5108452;28;20119;-69
2022/11/16 10:54:16;;;;;;;7.88;2.30;;;13.50;99.90;;;;;;5094295;28;20126;-68
2022/11/16 10:56:45;;;;;;;9.00;2.33;;;13.30;99.90;;;;;;5095421;28;20039;-68
2022/11/16 10:59:18;;;;;;;5.55;2.30;;;13.10;99.90;;;;;;5111246;28;20590;-68
2022/11/16 11:01:48;;;;;;;6.80;2.30;;;12.90;99.90;;;;;;5110855;28;20077;-68
2022/11/16 11:04:17;;;;;;;4.15;1.92;;;12.80;99.90;;;;;;5112825;28;20440;-68
2022/11/16 11:06:45;;;;;;;4.25;2.03;;;12.90;99.90;;;;;;5111972;28;20031;-69
2022/11/16 11:09:33;;;;;;;7.35;2.28;;;13.10;99.90;;;;;;5111958;28;20490;-67
2022/11/16 11:15:05;;;;;;;5.32;2.00;;;13.10;99.90;;;;;;5110381;28;20466;-68
2022/11/16 11:17:34;;;;;;;7.80;2.50;;;13.30;99.90;;;;;;5111760;28;20043;-68
2022/11/16 11:20:22;;;;;;;6.72;2.28;;;13.20;99.90;;;;;;5109432;28;20402;-69
2022/11/16 11:22:57;;;;;;;6.93;1.98;;;13.20;99.90;;;;;;5111371;28;20066;-68
2022/11/16 11:25:31;;;;;;;6.15;1.90;;;13.10;99.90;;;;;;5108489;28;20043;-68
2022/11/16 11:28:18;;;;;;;9.68;2.28;;;13.30;99.90;;;;;;5111431;28;20050;-68
2022/11/16 11:31:04;;;;;;;7.00;2.42;;;13.30;99.90;;;;;;5106792;28;20684;-69
2022/11/16 11:33:36;;;;;;;7.65;2.50;;;13.10;99.90;;;;;;5110598;28;20492;-69
2022/11/16 11:36:22;;;;;;;8.82;2.55;;;12.90;99.90;;;;;;5105293;28;20494;-68
2022/11/16 11:38:58;;;;;;;5.63;2.00;;;12.80;99.90;;;;;;5111231;28;20044;-67
2022/11/16 11:41:23;;;;;;;7.97;2.35;;;12.80;99.90;;;;;;5088774;28;20063;-69
2022/11/16 11:44:18;;;;;;;9.05;2.92;;;12.90;99.90;;;;;;5094110;28;20063;-68
2022/11/16 11:47:01;;;;;;;7.97;2.10;;;13.10;99.90;;;;;;5107626;28;20122;-68
2022/11/16 11:49:57;;;;;;;12.07;2.78;;;13.30;99.90;;;;;;5092392;28;20123;-68
2022/11/16 11:52:34;;;;;;;12.07;3.13;;;13.50;99.90;;;;;;5104639;28;20571;-69
2022/11/16 11:55:04;;;;;;;9.25;3.03;;;13.30;99.90;;;;;;5104727;28;20027;-68
2022/11/16 11:57:33;;;;;;;9.25;2.83;;;13.30;99.90;;;;;;5109047;28;20126;-69
2022/11/16 12:00:08;;;;;;;9.02;2.42;;;13.40;99.90;;;;;;5110410;28;20108;-69
2022/11/16 12:02:54;;;;;;;10.85;2.70;;;13.30;99.90;;;;;;5110672;28;20077;-69
2022/11/16 12:05:39;;;;;;;9.38;2.72;;;13.10;99.90;;;;;;5110301;28;20508;-68
2022/11/16 12:08:24;;;;;;;9.27;2.60;;;13.50;99.90;;;;;;5106248;28;20274;-69
2022/11/16 12:11:22;;;;;;;10.40;2.95;;;13.50;99.90;;;;;;5108558;28;20213;-68
2022/11/16 12:14:15;;;;;;;7.95;2.22;;;14.30;99.90;;;;;;5048820;28;20562;-68
2022/11/16 12:16:40;;;;;;;7.70;2.20;;;14.10;99.90;;;;;;5042921;28;20384;-69
2022/11/16 12:19:24;;;;;;;7.32;2.53;;;14.00;99.90;;;;;;5052449;28;20051;-68
2022/11/16 12:21:59;;;;;;;11.40;2.30;;;14.20;99.90;;;;;;5051720;28;20036;-69
2022/11/16 12:24:35;;;;;;;6.75;2.05;;;14.10;99.90;;;;;;5049306;28;20060;-68
2022/11/16 12:27:08;;;;;;;7.22;2.08;;;13.90;99.90;;;;;;5036073;28;20049;-69
2022/11/16 12:30:01;;;;;;;10.88;2.13;;;14.20;99.90;;;;;;5035652;28;20040;-68
2022/11/16 12:32:45;;;;;;;6.78;2.20;;;14.20;99.90;;;;;;5052010;28;20115;-68
2022/11/16 12:35:32;;;;;;;10.13;2.05;;;15.10;99.90;;;;;;5035040;28;20111;-68
2022/11/16 12:38:26;;;;;;;6.97;2.10;;;14.70;99.90;;;;;;5051792;28;20559;-68
2022/11/16 12:41:24;;;;;;;7.88;2.03;;;15.10;99.90;;;;;;5051839;28;20407;-69
2022/11/16 12:43:59;;;;;;;8.18;1.77;;;14.60;99.90;;;;;;4992446;28;20513;-68
2022/11/16 12:46:31;;;;;;;7.35;2.38;;;14.60;99.90;;;;;;4994682;28;20397;-68
2022/11/16 12:49:08;;;;;;;11.68;2.10;;;14.40;99.90;;;;;;4992232;28;20062;-68
2022/11/16 12:51:45;;;;;;;9.68;1.85;;;14.40;99.90;;;;;;4992611;28;20516;-68
2022/11/16 12:54:44;;;;;;;11.10;1.92;;;14.80;99.90;;;;;;4976543;28;20045;-68
2022/11/16 12:57:23;;;;;;;9.95;2.42;;;14.80;99.90;;;;;;4992525;28;20050;-68
2022/11/16 13:00:10;;;;;;;11.50;2.10;;;14.60;99.90;;;;;;4991604;28;20092;-69
2022/11/16 13:02:57;;;;;;;7.60;2.67;;;14.50;99.90;;;;;;4992677;28;20046;-69
2022/11/16 13:05:28;;;;;;;7.25;1.88;;;14.50;99.90;;;;;;4976488;28;20505;-68
2022/11/16 13:08:01;;;;;;;8.30;2.15;;;14.40;99.90;;;;;;4992726;28;20045;-68
2022/11/16 13:10:32;;;;;;;10.95;2.38;;;14.90;99.90;;;;;;4992382;28;20401;-68
2022/11/16 13:13:02;;;;;;;8.48;1.80;;;15.00;99.90;;;;;;4976128;28;20058;-68
2022/11/16 13:15:37;;;;;;;10.98;2.00;;;15.00;99.90;;;;;;4992295;28;20108;-67
2022/11/16 13:18:06;;;;;;;6.88;1.48;;;14.80;99.90;;;;;;4994973;28;20065;-68
2022/11/16 13:21:03;;;;;;;6.38;1.90;;;14.70;99.90;;;;;;5032801;28;20422;-68
2022/11/16 13:23:47;;;;;;;8.95;1.70;;;14.50;99.90;;;;;;5090795;28;20051;-68
2022/11/16 13:26:27;;;;;;;7.28;2.22;;;14.30;99.90;;;;;;5089798;28;20505;-68
2022/11/16 13:29:08;;;;;;;9.70;2.13;;;14.20;99.90;;;;;;5065148;28;20037;-68
2022/11/16 13:31:40;;;;;;;7.07;1.80;;;14.10;99.90;;;;;;5089333;28;20448;-68
2022/11/16 13:34:21;;;;;;;8.73;1.38;;;14.10;99.90;;;;;;5072879;28;20075;-68
2022/11/16 13:36:47;;;;;;;8.20;1.55;;;14.40;99.90;;;;;;5072672;28;20135;-68
2022/11/16 13:39:51;;;;;;;6.50;1.60;;;14.60;99.90;;;;;;5088911;28;20154;-69
2022/11/16 13:42:17;;;;;;;7.35;1.50;;;14.50;99.90;;;;;;5089475;28;20040;-69
2022/11/16 13:44:42;;;;;;;10.45;1.92;;;14.10;99.90;;;;;;5093338;28;20050;-68
2022/11/16 13:47:37;;;;;;;11.23;1.90;;;13.80;99.90;;;;;;5093934;28;20063;-68
2022/11/16 13:50:14;;;;;;;8.82;1.58;;;13.40;99.90;;;;;;5034332;28;20045;-69
2022/11/16 13:52:48;;;;;;;13.27;2.15;;;13.20;99.90;;;;;;5046818;28;20107;-68